This is the latest recevied weather packets stored in our database for station/object KB1JLI. If no packets are shown the sender has not sent any weather packets the latest 10 day(s).
| Time | Temp. | Humidity | Pressure | Rain* | Wind** | Luminosity | Snow |
|---|---|---|---|---|---|---|---|
| 1777311825 | 18.89° C | 39% | 1025.1 hPa | 0 mm | - | 667 W/m² | - |
| 1777311521 | 19.44° C | 37% | 1025.2 hPa | 0 mm | - | 671 W/m² | - |
| 1777311219 | 18.89° C | 37% | 1025 hPa | 0 mm | - | 677 W/m² | - |
| 1777310917 | 18.33° C | 39% | 1025 hPa | 0 mm | - | 680 W/m² | - |
| 1777310614 | 18.33° C | 38% | 1025.1 hPa | 0 mm | - | 684 W/m² | - |
| 1777310306 | 17.78° C | 39% | 1025.3 hPa | 0 mm | - | 688 W/m² | - |
| 1777310003 | 18.33° C | 36% | 1025.1 hPa | 0 mm | - | 690 W/m² | - |
| 1777309701 | 18.33° C | 39% | 1025.2 hPa | 0 mm | - | 692 W/m² | - |
| 1777309398 | 17.78° C | 37% | 1025.2 hPa | 0 mm | - | 695 W/m² | - |
| 1777309095 | 17.78° C | 38% | 1025.4 hPa | 0 mm | - | 696 W/m² | - |
| 1777308793 | 18.89° C | 36% | 1025.3 hPa | 0 mm | - | 697 W/m² | - |
| 1777308487 | 18.33° C | 38% | 1025.2 hPa | 0 mm | - | 698 W/m² | - |
| 1777308182 | 17.78° C | 40% | 1025.4 hPa | 0 mm | - | 698 W/m² | - |
| 1777307879 | 18.33° C | 39% | 1025.4 hPa | 0 mm | - | 699 W/m² | - |
| 1777307577 | 18.89° C | 39% | 1025.5 hPa | 0 mm | - | 697 W/m² | - |
| 1777307274 | 18.33° C | 40% | 1025.5 hPa | 0 mm | - | 698 W/m² | - |
| 1777306971 | 18.33° C | 40% | 1025.5 hPa | 0 mm | - | 697 W/m² | - |
| 1777306668 | 17.78° C | 39% | 1025.3 hPa | 0 mm | - | 693 W/m² | - |
| 1777306366 | 18.33° C | 39% | 1025.5 hPa | 0 mm | - | 695 W/m² | - |
| 1777306059 | 17.78° C | 41% | 1025.3 hPa | 0 mm | - | 692 W/m² | - |
| 1777305757 | 17.78° C | 40% | 1025.6 hPa | 0 mm | - | 690 W/m² | - |
| 1777305452 | 17.78° C | 42% | 1025.5 hPa | 0 mm | - | 687 W/m² | - |
| 1777305152 | 16.67° C | 42% | 1025.6 hPa | 0 mm | - | 684 W/m² | - |
| 1777304847 | 17.22° C | 42% | 1025.5 hPa | 0 mm | - | 679 W/m² | - |
| 1777304545 | 17.78° C | 40% | 1025.7 hPa | 0 mm | - | 675 W/m² | - |
* Rain latest hour (hover to see other rain measurements)
** Current wind speed in m/s (hover to see current wind gust speed)